Collegeport, Texas
Current Conditions -  °F | °C
As of 11:53 AM on Monday 24 Nov 2014 (Local Time) from KPSX Reporting Station
Clear Clear  
Wind Chill: 63°   Ceiling: Unl
Heat Index: 63°   Visibility: 10mi
Dew Point: 39°   Wind: 18mph
Humidity: 41%   Direction: 10°N
Pressure: 30.06"   Gusts: NA
Location:  28.72°N, 96.17°W
Report Text: KPSX 241753Z AUTO 01016KT 10SM CLR 17/04 A3006 RMK AO2 SLP178 T01720039 10172 20106 50010
Loading
Personal Weather Stations






























Interactive Weather Map New forecast layout! Learn more

10-Day Weather Forecast

Advertisements
Track Severe Weather on mobile